sensor_id;sensor_type;location;lat;lon;timestamp;temperature;humidity
21682;DHT22;11002;48.256;10.084;2023-04-16T00:01:02;6.40;99.90
21682;DHT22;11002;48.256;10.084;2023-04-16T00:03:30;6.40;99.90
21682;DHT22;11002;48.256;10.084;2023-04-16T00:05:58;6.40;99.90
21682;DHT22;11002;48.256;10.084;2023-04-16T00:08:25;6.50;99.90
21682;DHT22;11002;48.256;10.084;2023-04-16T00:10:53;6.40;99.90
21682;DHT22;11002;48.256;10.084;2023-04-16T00:13:20;6.40;99.90
21682;DHT22;11002;48.256;10.084;2023-04-16T00:15:47;6.50;99.90
21682;DHT22;11002;48.256;10.084;2023-04-16T00:18:15;6.40;99.90
21682;DHT22;11002;48.256;10.084;2023-04-16T00:20:43;6.40;99.90
21682;DHT22;11002;48.256;10.084;2023-04-16T00:23:11;6.40;99.90
21682;DHT22;11002;48.256;10.084;2023-04-16T00:25:38;6.60;99.90
21682;DHT22;11002;48.256;10.084;2023-04-16T00:28:05;6.40;99.90
21682;DHT22;11002;48.256;10.084;2023-04-16T00:30:34;6.20;99.90
21682;DHT22;11002;48.256;10.084;2023-04-16T00:33:01;6.30;99.90
21682;DHT22;11002;48.256;10.084;2023-04-16T00:35:29;6.30;99.90
21682;DHT22;11002;48.256;10.084;2023-04-16T00:37:58;6.20;99.90
21682;DHT22;11002;48.256;10.084;2023-04-16T00:40:26;6.20;99.90
21682;DHT22;11002;48.256;10.084;2023-04-16T00:42:54;6.30;99.90
21682;DHT22;11002;48.256;10.084;2023-04-16T00:45:22;6.40;99.90
21682;DHT22;11002;48.256;10.084;2023-04-16T00:47:50;6.20;99.90
21682;DHT22;11002;48.256;10.084;2023-04-16T00:50:17;6.30;99.90
21682;DHT22;11002;48.256;10.084;2023-04-16T00:52:46;6.30;99.90
21682;DHT22;11002;48.256;10.084;2023-04-16T00:55:15;6.30;99.90
21682;DHT22;11002;48.256;10.084;2023-04-16T00:57:44;6.20;99.90
21682;DHT22;11002;48.256;10.084;2023-04-16T01:00:12;6.30;99.90
21682;DHT22;11002;48.256;10.084;2023-04-16T01:02:39;6.20;99.90
21682;DHT22;11002;48.256;10.084;2023-04-16T01:05:07;6.30;99.90
21682;DHT22;11002;48.256;10.084;2023-04-16T01:07:35;6.50;99.90
21682;DHT22;11002;48.256;10.084;2023-04-16T01:10:02;6.30;99.90
21682;DHT22;11002;48.256;10.084;2023-04-16T01:12:31;6.20;99.90
21682;DHT22;11002;48.256;10.084;2023-04-16T01:14:59;6.20;99.90
21682;DHT22;11002;48.256;10.084;2023-04-16T01:17:26;6.20;99.90
21682;DHT22;11002;48.256;10.084;2023-04-16T01:19:57;6.40;99.90
21682;DHT22;11002;48.256;10.084;2023-04-16T01:22:26;6.20;99.90
21682;DHT22;11002;48.256;10.084;2023-04-16T01:24:54;6.10;99.90
21682;DHT22;11002;48.256;10.084;2023-04-16T01:27:22;6.10;99.90
21682;DHT22;11002;48.256;10.084;2023-04-16T01:29:50;6.50;99.90
21682;DHT22;11002;48.256;10.084;2023-04-16T01:32:22;6.20;99.90
21682;DHT22;11002;48.256;10.084;2023-04-16T01:34:50;6.30;99.90
21682;DHT22;11002;48.256;10.084;2023-04-16T01:37:17;6.30;99.90
21682;DHT22;11002;48.256;10.084;2023-04-16T01:39:46;6.30;99.90
21682;DHT22;11002;48.256;10.084;2023-04-16T01:42:14;6.40;99.90
21682;DHT22;11002;48.256;10.084;2023-04-16T01:44:42;6.30;99.90
21682;DHT22;11002;48.256;10.084;2023-04-16T01:47:10;6.40;99.90
21682;DHT22;11002;48.256;10.084;2023-04-16T01:49:37;6.30;99.90
21682;DHT22;11002;48.256;10.084;2023-04-16T01:52:04;6.30;99.90
21682;DHT22;11002;48.256;10.084;2023-04-16T01:54:33;6.30;99.90
21682;DHT22;11002;48.256;10.084;2023-04-16T01:57:02;6.30;99.90
21682;DHT22;11002;48.256;10.084;2023-04-16T01:59:29;6.20;99.90
21682;DHT22;11002;48.256;10.084;2023-04-16T02:01:59;6.20;99.90
21682;DHT22;11002;48.256;10.084;2023-04-16T02:04:26;6.10;99.90
21682;DHT22;11002;48.256;10.084;2023-04-16T02:06:54;6.20;99.90
21682;DHT22;11002;48.256;10.084;2023-04-16T02:09:21;6.10;99.90
21682;DHT22;11002;48.256;10.084;2023-04-16T02:11:49;6.20;99.90
21682;DHT22;11002;48.256;10.084;2023-04-16T02:14:18;6.20;99.90
21682;DHT22;11002;48.256;10.084;2023-04-16T02:16:47;6.40;99.90
21682;DHT22;11002;48.256;10.084;2023-04-16T02:19:32;6.30;99.90
21682;DHT22;11002;48.256;10.084;2023-04-16T02:21:59;6.30;99.90
21682;DHT22;11002;48.256;10.084;2023-04-16T02:24:27;6.10;99.90
21682;DHT22;11002;48.256;10.084;2023-04-16T02:26:56;6.40;99.90
21682;DHT22;11002;48.256;10.084;2023-04-16T02:29:25;6.20;99.90
21682;DHT22;11002;48.256;10.084;2023-04-16T02:31:59;6.20;99.90
21682;DHT22;11002;48.256;10.084;2023-04-16T02:34:28;6.20;99.90
21682;DHT22;11002;48.256;10.084;2023-04-16T02:36:56;6.20;99.90
21682;DHT22;11002;48.256;10.084;2023-04-16T02:39:24;6.20;99.90
21682;DHT22;11002;48.256;10.084;2023-04-16T02:41:53;6.10;99.90
21682;DHT22;11002;48.256;10.084;2023-04-16T02:44:20;6.30;99.90
21682;DHT22;11002;48.256;10.084;2023-04-16T02:46:54;6.30;99.90
21682;DHT22;11002;48.256;10.084;2023-04-16T02:49:22;6.30;99.90
21682;DHT22;11002;48.256;10.084;2023-04-16T02:51:49;6.20;99.90
21682;DHT22;11002;48.256;10.084;2023-04-16T02:54:16;6.30;99.90
21682;DHT22;11002;48.256;10.084;2023-04-16T02:56:44;6.30;99.90
21682;DHT22;11002;48.256;10.084;2023-04-16T02:59:11;6.30;99.90
21682;DHT22;11002;48.256;10.084;2023-04-16T03:01:38;6.30;99.90
21682;DHT22;11002;48.256;10.084;2023-04-16T03:04:08;6.40;99.90
21682;DHT22;11002;48.256;10.084;2023-04-16T03:06:35;6.50;99.90
21682;DHT22;11002;48.256;10.084;2023-04-16T03:09:05;6.30;99.90
21682;DHT22;11002;48.256;10.084;2023-04-16T03:11:33;6.30;99.90
21682;DHT22;11002;48.256;10.084;2023-04-16T03:14:00;6.50;99.90
21682;DHT22;11002;48.256;10.084;2023-04-16T03:16:27;6.30;99.90
21682;DHT22;11002;48.256;10.084;2023-04-16T03:18:55;6.30;99.90
21682;DHT22;11002;48.256;10.084;2023-04-16T03:21:24;6.30;99.90
21682;DHT22;11002;48.256;10.084;2023-04-16T03:23:52;6.50;99.90
21682;DHT22;11002;48.256;10.084;2023-04-16T03:26:23;6.40;99.90
21682;DHT22;11002;48.256;10.084;2023-04-16T03:28:50;6.40;99.90
21682;DHT22;11002;48.256;10.084;2023-04-16T03:31:18;6.40;99.90
21682;DHT22;11002;48.256;10.084;2023-04-16T03:33:45;6.40;99.90
21682;DHT22;11002;48.256;10.084;2023-04-16T03:36:13;6.70;99.90
21682;DHT22;11002;48.256;10.084;2023-04-16T03:38:41;6.40;99.90
21682;DHT22;11002;48.256;10.084;2023-04-16T03:41:09;6.30;99.90
21682;DHT22;11002;48.256;10.084;2023-04-16T03:43:36;6.40;99.90
21682;DHT22;11002;48.256;10.084;2023-04-16T03:46:05;6.50;99.90
21682;DHT22;11002;48.256;10.084;2023-04-16T03:48:32;6.50;99.90
21682;DHT22;11002;48.256;10.084;2023-04-16T03:51:00;6.40;99.90
21682;DHT22;11002;48.256;10.084;2023-04-16T03:53:28;6.40;99.90
21682;DHT22;11002;48.256;10.084;2023-04-16T03:55:57;6.40;99.90
21682;DHT22;11002;48.256;10.084;2023-04-16T03:58:24;6.50;99.90
21682;DHT22;11002;48.256;10.084;2023-04-16T04:00:52;6.40;99.90
21682;DHT22;11002;48.256;10.084;2023-04-16T04:03:20;6.40;99.90
21682;DHT22;11002;48.256;10.084;2023-04-16T04:05:49;6.40;99.90
21682;DHT22;11002;48.256;10.084;2023-04-16T04:08:23;6.40;99.90
21682;DHT22;11002;48.256;10.084;2023-04-16T04:10:51;6.70;99.90
21682;DHT22;11002;48.256;10.084;2023-04-16T04:13:21;6.60;99.90
21682;DHT22;11002;48.256;10.084;2023-04-16T04:15:50;6.40;99.90
21682;DHT22;11002;48.256;10.084;2023-04-16T04:18:18;6.70;99.90
21682;DHT22;11002;48.256;10.084;2023-04-16T04:20:45;6.50;99.90
21682;DHT22;11002;48.256;10.084;2023-04-16T04:23:15;6.50;99.90
21682;DHT22;11002;48.256;10.084;2023-04-16T04:25:44;6.60;99.90
21682;DHT22;11002;48.256;10.084;2023-04-16T04:28:12;6.50;99.90
21682;DHT22;11002;48.256;10.084;2023-04-16T04:30:41;6.50;99.90
21682;DHT22;11002;48.256;10.084;2023-04-16T04:33:09;6.60;99.90
21682;DHT22;11002;48.256;10.084;2023-04-16T04:35:37;6.50;99.90
21682;DHT22;11002;48.256;10.084;2023-04-16T04:38:05;6.50;99.90
21682;DHT22;11002;48.256;10.084;2023-04-16T04:40:33;6.50;99.90
21682;DHT22;11002;48.256;10.084;2023-04-16T04:43:00;6.60;99.90
21682;DHT22;11002;48.256;10.084;2023-04-16T04:45:28;6.50;99.90
21682;DHT22;11002;48.256;10.084;2023-04-16T04:47:57;6.50;99.90
21682;DHT22;11002;48.256;10.084;2023-04-16T04:50:25;6.40;99.90
21682;DHT22;11002;48.256;10.084;2023-04-16T04:52:52;6.70;99.90
21682;DHT22;11002;48.256;10.084;2023-04-16T04:55:21;6.70;99.90
21682;DHT22;11002;48.256;10.084;2023-04-16T04:57:49;6.80;99.90
21682;DHT22;11002;48.256;10.084;2023-04-16T05:00:17;6.70;99.90
21682;DHT22;11002;48.256;10.084;2023-04-16T05:02:52;6.70;99.90
21682;DHT22;11002;48.256;10.084;2023-04-16T05:05:21;6.60;99.90
21682;DHT22;11002;48.256;10.084;2023-04-16T05:07:48;6.60;99.90
21682;DHT22;11002;48.256;10.084;2023-04-16T05:10:15;6.50;99.90
21682;DHT22;11002;48.256;10.084;2023-04-16T05:12:43;6.60;99.90
21682;DHT22;11002;48.256;10.084;2023-04-16T05:15:10;6.70;99.90
21682;DHT22;11002;48.256;10.084;2023-04-16T05:17:38;6.60;99.90
21682;DHT22;11002;48.256;10.084;2023-04-16T05:20:06;6.60;99.90
21682;DHT22;11002;48.256;10.084;2023-04-16T05:22:35;6.60;99.90
21682;DHT22;11002;48.256;10.084;2023-04-16T05:25:03;6.60;99.90
21682;DHT22;11002;48.256;10.084;2023-04-16T05:27:31;6.60;99.90
21682;DHT22;11002;48.256;10.084;2023-04-16T05:29:58;6.70;99.90
21682;DHT22;11002;48.256;10.084;2023-04-16T05:32:25;6.80;99.90
21682;DHT22;11002;48.256;10.084;2023-04-16T05:34:53;6.70;99.90
21682;DHT22;11002;48.256;10.084;2023-04-16T05:37:20;6.60;99.90
21682;DHT22;11002;48.256;10.084;2023-04-16T05:39:49;6.70;99.90
21682;DHT22;11002;48.256;10.084;2023-04-16T05:42:16;6.60;99.90
21682;DHT22;11002;48.256;10.084;2023-04-16T05:44:43;6.70;99.90
21682;DHT22;11002;48.256;10.084;2023-04-16T05:47:11;6.70;99.90
21682;DHT22;11002;48.256;10.084;2023-04-16T05:49:38;6.80;99.90
21682;DHT22;11002;48.256;10.084;2023-04-16T05:52:05;6.80;99.90
21682;DHT22;11002;48.256;10.084;2023-04-16T05:54:33;6.70;99.90
21682;DHT22;11002;48.256;10.084;2023-04-16T05:57:02;6.70;99.90
21682;DHT22;11002;48.256;10.084;2023-04-16T05:59:29;6.70;99.90
21682;DHT22;11002;48.256;10.084;2023-04-16T06:01:57;6.70;99.90
21682;DHT22;11002;48.256;10.084;2023-04-16T06:04:24;6.80;99.90
21682;DHT22;11002;48.256;10.084;2023-04-16T06:06:51;6.80;99.90
21682;DHT22;11002;48.256;10.084;2023-04-16T06:09:19;6.80;99.90
21682;DHT22;11002;48.256;10.084;2023-04-16T06:11:46;6.80;99.90
21682;DHT22;11002;48.256;10.084;2023-04-16T06:14:15;6.70;99.90
21682;DHT22;11002;48.256;10.084;2023-04-16T06:16:42;6.80;99.90
21682;DHT22;11002;48.256;10.084;2023-04-16T06:19:10;6.80;99.90
21682;DHT22;11002;48.256;10.084;2023-04-16T06:21:37;7.00;99.90
21682;DHT22;11002;48.256;10.084;2023-04-16T06:24:05;6.70;99.90
21682;DHT22;11002;48.256;10.084;2023-04-16T06:26:32;6.90;99.90
21682;DHT22;11002;48.256;10.084;2023-04-16T06:29:00;6.90;99.90
21682;DHT22;11002;48.256;10.084;2023-04-16T06:31:29;7.00;99.90
21682;DHT22;11002;48.256;10.084;2023-04-16T06:33:56;7.00;99.90
21682;DHT22;11002;48.256;10.084;2023-04-16T06:36:23;7.10;99.90
21682;DHT22;11002;48.256;10.084;2023-04-16T06:38:52;7.10;99.90
21682;DHT22;11002;48.256;10.084;2023-04-16T06:41:19;7.10;99.90
21682;DHT22;11002;48.256;10.084;2023-04-16T06:43:47;7.00;99.90
21682;DHT22;11002;48.256;10.084;2023-04-16T06:46:15;7.10;99.90
21682;DHT22;11002;48.256;10.084;2023-04-16T06:48:43;7.10;99.90
21682;DHT22;11002;48.256;10.084;2023-04-16T06:51:11;7.10;99.90
21682;DHT22;11002;48.256;10.084;2023-04-16T06:53:38;7.10;99.90
21682;DHT22;11002;48.256;10.084;2023-04-16T06:56:07;7.00;99.90
21682;DHT22;11002;48.256;10.084;2023-04-16T06:58:35;7.20;99.90
21682;DHT22;11002;48.256;10.084;2023-04-16T07:01:02;7.20;99.90
21682;DHT22;11002;48.256;10.084;2023-04-16T07:03:30;7.10;99.90
21682;DHT22;11002;48.256;10.084;2023-04-16T07:05:59;7.20;99.90
21682;DHT22;11002;48.256;10.084;2023-04-16T07:08:26;7.30;99.90
21682;DHT22;11002;48.256;10.084;2023-04-16T07:10:53;7.20;99.90
21682;DHT22;11002;48.256;10.084;2023-04-16T07:13:21;7.20;99.90
21682;DHT22;11002;48.256;10.084;2023-04-16T07:15:50;7.30;99.90
21682;DHT22;11002;48.256;10.084;2023-04-16T07:18:17;7.40;99.90
21682;DHT22;11002;48.256;10.084;2023-04-16T07:20:45;7.50;99.90
21682;DHT22;11002;48.256;10.084;2023-04-16T07:23:13;7.50;99.90
21682;DHT22;11002;48.256;10.084;2023-04-16T07:25:41;7.60;99.90
21682;DHT22;11002;48.256;10.084;2023-04-16T07:28:08;7.80;99.90
21682;DHT22;11002;48.256;10.084;2023-04-16T07:30:36;7.60;99.90
21682;DHT22;11002;48.256;10.084;2023-04-16T07:33:03;7.50;99.90
21682;DHT22;11002;48.256;10.084;2023-04-16T07:35:31;7.60;99.90
21682;DHT22;11002;48.256;10.084;2023-04-16T07:37:58;7.60;99.90
21682;DHT22;11002;48.256;10.084;2023-04-16T07:40:27;7.70;99.90
21682;DHT22;11002;48.256;10.084;2023-04-16T07:42:54;7.70;99.90
21682;DHT22;11002;48.256;10.084;2023-04-16T07:45:22;7.70;99.90
21682;DHT22;11002;48.256;10.084;2023-04-16T07:47:50;7.70;99.90
21682;DHT22;11002;48.256;10.084;2023-04-16T07:50:17;7.70;99.90
21682;DHT22;11002;48.256;10.084;2023-04-16T07:52:46;7.70;99.90
21682;DHT22;11002;48.256;10.084;2023-04-16T07:55:13;7.80;99.90
21682;DHT22;11002;48.256;10.084;2023-04-16T07:57:42;7.80;99.90
21682;DHT22;11002;48.256;10.084;2023-04-16T08:00:10;7.90;99.90
21682;DHT22;11002;48.256;10.084;2023-04-16T08:02:42;7.90;99.90
21682;DHT22;11002;48.256;10.084;2023-04-16T08:05:09;8.00;99.90
21682;DHT22;11002;48.256;10.084;2023-04-16T08:07:37;8.00;99.90
21682;DHT22;11002;48.256;10.084;2023-04-16T08:10:05;8.20;99.90
21682;DHT22;11002;48.256;10.084;2023-04-16T08:12:34;8.20;99.90
21682;DHT22;11002;48.256;10.084;2023-04-16T08:15:03;8.50;99.90
21682;DHT22;11002;48.256;10.084;2023-04-16T08:17:31;8.30;99.90
21682;DHT22;11002;48.256;10.084;2023-04-16T08:19:59;8.20;99.90
21682;DHT22;11002;48.256;10.084;2023-04-16T08:22:26;8.30;99.90
21682;DHT22;11002;48.256;10.084;2023-04-16T08:24:54;8.30;99.90
21682;DHT22;11002;48.256;10.084;2023-04-16T08:27:21;8.30;99.90
21682;DHT22;11002;48.256;10.084;2023-04-16T08:29:49;8.20;99.90
21682;DHT22;11002;48.256;10.084;2023-04-16T08:32:17;8.20;99.90
21682;DHT22;11002;48.256;10.084;2023-04-16T08:34:45;8.20;99.90
21682;DHT22;11002;48.256;10.084;2023-04-16T08:37:12;8.40;99.90
21682;DHT22;11002;48.256;10.084;2023-04-16T08:39:40;8.20;99.90
21682;DHT22;11002;48.256;10.084;2023-04-16T08:42:17;8.10;99.90
21682;DHT22;11002;48.256;10.084;2023-04-16T08:44:48;8.00;99.90
21682;DHT22;11002;48.256;10.084;2023-04-16T08:47:18;8.30;99.90
21682;DHT22;11002;48.256;10.084;2023-04-16T08:49:53;8.50;99.90
21682;DHT22;11002;48.256;10.084;2023-04-16T08:52:22;8.60;99.90
21682;DHT22;11002;48.256;10.084;2023-04-16T08:54:56;8.40;99.90
21682;DHT22;11002;48.256;10.084;2023-04-16T08:57:31;8.40;99.90
21682;DHT22;11002;48.256;10.084;2023-04-16T09:00:02;8.40;99.90
21682;DHT22;11002;48.256;10.084;2023-04-16T09:02:31;8.50;99.90
21682;DHT22;11002;48.256;10.084;2023-04-16T09:05:00;8.40;99.90
21682;DHT22;11002;48.256;10.084;2023-04-16T09:07:30;8.60;99.90
21682;DHT22;11002;48.256;10.084;2023-04-16T09:10:00;8.60;99.90
21682;DHT22;11002;48.256;10.084;2023-04-16T09:12:29;8.60;99.90
21682;DHT22;11002;48.256;10.084;2023-04-16T09:14:58;8.70;99.90
21682;DHT22;11002;48.256;10.084;2023-04-16T09:17:28;8.60;99.90
21682;DHT22;11002;48.256;10.084;2023-04-16T09:19:57;8.80;99.90
21682;DHT22;11002;48.256;10.084;2023-04-16T09:22:25;8.80;99.90
21682;DHT22;11002;48.256;10.084;2023-04-16T09:24:52;8.90;99.90
21682;DHT22;11002;48.256;10.084;2023-04-16T09:27:20;9.10;99.90
21682;DHT22;11002;48.256;10.084;2023-04-16T09:29:50;9.20;99.90
21682;DHT22;11002;48.256;10.084;2023-04-16T09:32:24;9.20;99.90
21682;DHT22;11002;48.256;10.084;2023-04-16T09:35:02;9.30;99.90
21682;DHT22;11002;48.256;10.084;2023-04-16T09:37:30;9.30;99.90
21682;DHT22;11002;48.256;10.084;2023-04-16T09:40:00;9.50;99.90
21682;DHT22;11002;48.256;10.084;2023-04-16T09:42:31;9.50;99.90
21682;DHT22;11002;48.256;10.084;2023-04-16T09:45:00;9.70;99.90
21682;DHT22;11002;48.256;10.084;2023-04-16T09:47:38;9.70;99.90
21682;DHT22;11002;48.256;10.084;2023-04-16T09:50:09;9.40;99.90
21682;DHT22;11002;48.256;10.084;2023-04-16T09:52:42;9.30;99.90
21682;DHT22;11002;48.256;10.084;2023-04-16T09:55:10;9.20;99.90
21682;DHT22;11002;48.256;10.084;2023-04-16T09:57:38;9.40;99.90
21682;DHT22;11002;48.256;10.084;2023-04-16T10:00:07;9.20;99.90
21682;DHT22;11002;48.256;10.084;2023-04-16T10:02:39;9.30;99.90
21682;DHT22;11002;48.256;10.084;2023-04-16T10:05:09;9.00;99.90
21682;DHT22;11002;48.256;10.084;2023-04-16T10:07:41;9.00;99.90
21682;DHT22;11002;48.256;10.084;2023-04-16T10:10:09;8.90;99.90
21682;DHT22;11002;48.256;10.084;2023-04-16T10:12:37;9.20;99.90
21682;DHT22;11002;48.256;10.084;2023-04-16T10:15:06;9.00;99.90
21682;DHT22;11002;48.256;10.084;2023-04-16T10:17:36;9.00;99.90
21682;DHT22;11002;48.256;10.084;2023-04-16T10:20:08;9.10;99.90
21682;DHT22;11002;48.256;10.084;2023-04-16T10:22:36;9.10;99.90
21682;DHT22;11002;48.256;10.084;2023-04-16T10:25:03;9.10;99.90
21682;DHT22;11002;48.256;10.084;2023-04-16T10:27:32;9.00;99.90
21682;DHT22;11002;48.256;10.084;2023-04-16T10:29:59;9.00;99.90
21682;DHT22;11002;48.256;10.084;2023-04-16T10:32:27;8.60;99.90
21682;DHT22;11002;48.256;10.084;2023-04-16T10:34:56;8.70;99.90
21682;DHT22;11002;48.256;10.084;2023-04-16T10:37:29;8.70;99.90
21682;DHT22;11002;48.256;10.084;2023-04-16T10:39:57;8.60;99.90
21682;DHT22;11002;48.256;10.084;2023-04-16T10:42:25;8.70;99.90
21682;DHT22;11002;48.256;10.084;2023-04-16T10:44:52;8.90;99.90
21682;DHT22;11002;48.256;10.084;2023-04-16T10:47:23;8.90;99.90
21682;DHT22;11002;48.256;10.084;2023-04-16T10:49:51;8.70;99.90
21682;DHT22;11002;48.256;10.084;2023-04-16T10:52:19;9.00;99.90
21682;DHT22;11002;48.256;10.084;2023-04-16T10:54:49;9.00;99.90
21682;DHT22;11002;48.256;10.084;2023-04-16T10:57:20;8.70;99.90
21682;DHT22;11002;48.256;10.084;2023-04-16T10:59:48;8.90;99.90
21682;DHT22;11002;48.256;10.084;2023-04-16T11:02:16;8.80;99.90
21682;DHT22;11002;48.256;10.084;2023-04-16T11:04:44;8.70;99.90
21682;DHT22;11002;48.256;10.084;2023-04-16T11:07:16;8.70;99.90
21682;DHT22;11002;48.256;10.084;2023-04-16T11:09:55;9.00;99.90
21682;DHT22;11002;48.256;10.084;2023-04-16T11:12:25;9.00;99.90
21682;DHT22;11002;48.256;10.084;2023-04-16T11:14:57;9.00;99.90
21682;DHT22;11002;48.256;10.084;2023-04-16T11:17:28;8.90;99.90
21682;DHT22;11002;48.256;10.084;2023-04-16T11:19:56;8.80;99.90
21682;DHT22;11002;48.256;10.084;2023-04-16T11:22:23;9.00;99.90
21682;DHT22;11002;48.256;10.084;2023-04-16T11:24:55;8.80;99.90
21682;DHT22;11002;48.256;10.084;2023-04-16T11:27:22;8.70;99.90
21682;DHT22;11002;48.256;10.084;2023-04-16T11:29:57;9.00;99.90
21682;DHT22;11002;48.256;10.084;2023-04-16T11:32:25;8.90;99.90
21682;DHT22;11002;48.256;10.084;2023-04-16T11:34:52;9.10;99.90
21682;DHT22;11002;48.256;10.084;2023-04-16T11:37:20;8.90;99.90
21682;DHT22;11002;48.256;10.084;2023-04-16T11:39:49;8.90;99.90
21682;DHT22;11002;48.256;10.084;2023-04-16T11:42:22;8.80;99.90
21682;DHT22;11002;48.256;10.084;2023-04-16T11:44:53;8.80;99.90
21682;DHT22;11002;48.256;10.084;2023-04-16T11:47:21;8.80;99.90
21682;DHT22;11002;48.256;10.084;2023-04-16T11:49:49;8.90;99.90
21682;DHT22;11002;48.256;10.084;2023-04-16T11:52:27;8.90;99.90
21682;DHT22;11002;48.256;10.084;2023-04-16T11:54:55;8.90;99.90
21682;DHT22;11002;48.256;10.084;2023-04-16T11:57:28;8.70;99.90
21682;DHT22;11002;48.256;10.084;2023-04-16T11:59:57;8.80;99.90
21682;DHT22;11002;48.256;10.084;2023-04-16T12:02:38;8.70;99.90
21682;DHT22;11002;48.256;10.084;2023-04-16T12:05:13;8.60;99.90
21682;DHT22;11002;48.256;10.084;2023-04-16T12:07:52;8.50;99.90
21682;DHT22;11002;48.256;10.084;2023-04-16T12:10:20;8.70;99.90
21682;DHT22;11002;48.256;10.084;2023-04-16T12:12:48;8.60;99.90
21682;DHT22;11002;48.256;10.084;2023-04-16T12:15:16;8.70;99.90
21682;DHT22;11002;48.256;10.084;2023-04-16T12:17:43;8.90;99.90
21682;DHT22;11002;48.256;10.084;2023-04-16T12:20:12;8.60;99.90
21682;DHT22;11002;48.256;10.084;2023-04-16T12:22:44;8.60;99.90
21682;DHT22;11002;48.256;10.084;2023-04-16T12:25:12;8.70;99.90
21682;DHT22;11002;48.256;10.084;2023-04-16T12:27:44;8.70;99.90
21682;DHT22;11002;48.256;10.084;2023-04-16T12:30:14;8.80;99.90
21682;DHT22;11002;48.256;10.084;2023-04-16T12:32:43;8.50;99.90
21682;DHT22;11002;48.256;10.084;2023-04-16T12:35:11;8.60;99.90
21682;DHT22;11002;48.256;10.084;2023-04-16T12:37:39;8.70;99.90
21682;DHT22;11002;48.256;10.084;2023-04-16T12:40:07;8.60;99.90
21682;DHT22;11002;48.256;10.084;2023-04-16T12:42:37;8.60;99.90
21682;DHT22;11002;48.256;10.084;2023-04-16T12:45:05;8.40;99.90
21682;DHT22;11002;48.256;10.084;2023-04-16T12:47:34;8.50;99.90
21682;DHT22;11002;48.256;10.084;2023-04-16T12:50:01;8.60;99.90
21682;DHT22;11002;48.256;10.084;2023-04-16T12:52:29;8.40;99.90
21682;DHT22;11002;48.256;10.084;2023-04-16T12:54:56;8.40;99.90
21682;DHT22;11002;48.256;10.084;2023-04-16T12:57:23;8.60;99.90
21682;DHT22;11002;48.256;10.084;2023-04-16T12:59:54;8.60;99.90
21682;DHT22;11002;48.256;10.084;2023-04-16T13:02:22;8.60;99.90
21682;DHT22;11002;48.256;10.084;2023-04-16T13:04:51;8.60;99.90
21682;DHT22;11002;48.256;10.084;2023-04-16T13:07:19;8.60;99.90
21682;DHT22;11002;48.256;10.084;2023-04-16T13:09:46;8.70;99.90
21682;DHT22;11002;48.256;10.084;2023-04-16T13:12:14;8.70;99.90
21682;DHT22;11002;48.256;10.084;2023-04-16T13:14:41;8.70;99.90
21682;DHT22;11002;48.256;10.084;2023-04-16T13:17:08;9.00;99.90
21682;DHT22;11002;48.256;10.084;2023-04-16T13:19:36;8.80;99.90
21682;DHT22;11002;48.256;10.084;2023-04-16T13:22:04;8.70;99.90
21682;DHT22;11002;48.256;10.084;2023-04-16T13:24:32;9.00;99.90
21682;DHT22;11002;48.256;10.084;2023-04-16T13:26:59;9.00;99.90
21682;DHT22;11002;48.256;10.084;2023-04-16T13:29:26;9.00;99.90
21682;DHT22;11002;48.256;10.084;2023-04-16T13:31:55;9.20;99.90
21682;DHT22;11002;48.256;10.084;2023-04-16T13:34:22;9.10;99.90
21682;DHT22;11002;48.256;10.084;2023-04-16T13:36:49;8.90;99.90
21682;DHT22;11002;48.256;10.084;2023-04-16T13:39:18;8.90;99.90
21682;DHT22;11002;48.256;10.084;2023-04-16T13:41:46;9.10;99.90
21682;DHT22;11002;48.256;10.084;2023-04-16T13:44:14;8.90;99.90
21682;DHT22;11002;48.256;10.084;2023-04-16T13:46:43;8.90;99.90
21682;DHT22;11002;48.256;10.084;2023-04-16T13:49:12;8.90;99.90
21682;DHT22;11002;48.256;10.084;2023-04-16T13:51:41;8.80;99.90
21682;DHT22;11002;48.256;10.084;2023-04-16T13:54:08;8.70;99.90
21682;DHT22;11002;48.256;10.084;2023-04-16T13:56:37;8.50;99.90
21682;DHT22;11002;48.256;10.084;2023-04-16T13:59:05;8.70;99.90
21682;DHT22;11002;48.256;10.084;2023-04-16T14:01:33;8.60;99.90
21682;DHT22;11002;48.256;10.084;2023-04-16T14:04:00;8.60;99.90
21682;DHT22;11002;48.256;10.084;2023-04-16T14:06:31;8.50;99.90
21682;DHT22;11002;48.256;10.084;2023-04-16T14:08:58;8.70;99.90
21682;DHT22;11002;48.256;10.084;2023-04-16T14:11:26;8.50;99.90
21682;DHT22;11002;48.256;10.084;2023-04-16T14:13:55;8.80;99.90
21682;DHT22;11002;48.256;10.084;2023-04-16T14:16:23;8.80;99.90
21682;DHT22;11002;48.256;10.084;2023-04-16T14:18:50;8.70;99.90
21682;DHT22;11002;48.256;10.084;2023-04-16T14:21:18;8.60;99.90
21682;DHT22;11002;48.256;10.084;2023-04-16T14:23:45;8.60;99.90
21682;DHT22;11002;48.256;10.084;2023-04-16T14:26:12;8.70;99.90
21682;DHT22;11002;48.256;10.084;2023-04-16T14:28:40;8.70;99.90
21682;DHT22;11002;48.256;10.084;2023-04-16T14:31:13;8.80;99.90
21682;DHT22;11002;48.256;10.084;2023-04-16T14:33:45;8.50;99.90
21682;DHT22;11002;48.256;10.084;2023-04-16T14:36:14;8.60;99.90
21682;DHT22;11002;48.256;10.084;2023-04-16T14:38:42;8.70;99.90
21682;DHT22;11002;48.256;10.084;2023-04-16T14:41:09;8.60;99.90
21682;DHT22;11002;48.256;10.084;2023-04-16T14:43:37;8.60;99.90
21682;DHT22;11002;48.256;10.084;2023-04-16T14:46:06;8.40;99.90
21682;DHT22;11002;48.256;10.084;2023-04-16T14:48:37;8.50;99.90
21682;DHT22;11002;48.256;10.084;2023-04-16T14:51:06;8.50;99.90
21682;DHT22;11002;48.256;10.084;2023-04-16T14:53:36;8.50;99.90
21682;DHT22;11002;48.256;10.084;2023-04-16T14:56:03;8.50;99.90
21682;DHT22;11002;48.256;10.084;2023-04-16T14:58:33;8.60;99.90
21682;DHT22;11002;48.256;10.084;2023-04-16T15:01:02;8.80;99.90
21682;DHT22;11002;48.256;10.084;2023-04-16T15:03:31;8.60;99.90
21682;DHT22;11002;48.256;10.084;2023-04-16T15:06:02;8.60;99.90
21682;DHT22;11002;48.256;10.084;2023-04-16T15:08:29;8.50;99.90
21682;DHT22;11002;48.256;10.084;2023-04-16T15:11:00;8.50;99.90
21682;DHT22;11002;48.256;10.084;2023-04-16T15:13:27;8.30;99.90
21682;DHT22;11002;48.256;10.084;2023-04-16T15:15:59;8.50;99.90
21682;DHT22;11002;48.256;10.084;2023-04-16T15:18:26;8.40;99.90
21682;DHT22;11002;48.256;10.084;2023-04-16T15:20:54;8.40;99.90
21682;DHT22;11002;48.256;10.084;2023-04-16T15:23:26;8.50;99.90
21682;DHT22;11002;48.256;10.084;2023-04-16T15:25:53;8.50;99.90
21682;DHT22;11002;48.256;10.084;2023-04-16T15:28:20;8.50;99.90
21682;DHT22;11002;48.256;10.084;2023-04-16T15:30:50;8.50;99.90
21682;DHT22;11002;48.256;10.084;2023-04-16T15:33:19;8.50;99.90
21682;DHT22;11002;48.256;10.084;2023-04-16T15:35:47;8.50;99.90
21682;DHT22;11002;48.256;10.084;2023-04-16T15:38:16;8.60;99.90